Flight Track Log - Related Links

Times and Time Zones

All times are in EDT time to prevent confusion due to time zone crossing. See the BER6298 flight status page for this flight to view local times or setup timezone preferences in your user account.

Time Position Orientation Groundspeed Altitude Reporting Facility
EDT Latitude Longitude Course Direction KTS MPH feet Rate Location/Type
Thu 02:38:00 AM 49.1367 11.5445 349° North  Level Estimated
Thu 02:39:00 AM 49.2345 11.5138 348° North  Level Estimated
Thu 02:40:00 AM 49.3323 11.4829 348° North  Level Estimated
Thu 02:41:00 AM 49.4301 11.4520 348° North  Level Estimated
Thu 02:42:00 AM 49.5279 11.4209 348° North  Level Estimated
Thu 02:43:00 AM 49.6257 11.3896 348° North  Level Estimated
Thu 02:44:00 AM 49.7235 11.3583 348° North  Level Estimated
Thu 02:45:00 AM 49.8213 11.3268 348° North  Level Estimated
Thu 02:46:00 AM 49.9190 11.2952 348° North  Level Estimated
Thu 02:47:00 AM 50.0168 11.2635 348° North  Level Estimated
Thu 02:48:00 AM 50.1145 11.2316 348° North  Level Estimated
Thu 02:49:00 AM 50.2123 11.1996 348° North  Level Estimated
Thu 02:50:00 AM 50.3100 11.1675 348° North  Level Estimated
Thu 02:51:00 AM 50.4077 11.1353 348° North  Level Estimated
Thu 02:52:00 AM 50.5054 11.1029 348° North  Level Estimated
Thu 02:53:00 AM 50.6031 11.0703 348° North  Level Estimated
Thu 02:54:00 AM 50.7008 11.0377 348° North  Level Estimated
Thu 02:55:00 AM 50.7985 11.0049 348° North  Level Estimated
Thu 02:56:00 AM 50.8962 10.9719 348° North  Level Estimated
Thu 02:57:00 AM 50.9939 10.9389 348° North  Level Estimated
Thu 02:58:00 AM 51.0915 10.9057 348° North  Level Estimated
Thu 02:59:00 AM 51.1892 10.8723 348° North  Level Estimated
Thu 03:00:00 AM 51.2868 10.8388 348° North  Level Estimated
Thu 03:01:00 AM 51.3844 10.8052 348° North  Level Estimated
Thu 03:02:00 AM 51.4821 10.7714 348° North  Level Estimated
Thu 03:03:00 AM 51.5797 10.7375 348° North  Level Estimated
Thu 03:04:00 AM 51.6773 10.7034 348° North  Level Estimated
Thu 03:05:00 AM 51.7749 10.6692 348° North  Level Estimated
Thu 03:06:00 AM 51.8724 10.6348 348° North  Level Estimated
Thu 03:07:00 AM 51.9700 10.6003 348° North  Level Estimated
Thu 03:08:00 AM 52.0676 10.5656 348° North  Level Estimated
Thu 03:09:00 AM 52.1651 10.5308 348° North  Level Estimated
Thu 03:10:00 AM 52.2627 10.4958 348° North  Level Estimated
Thu 03:11:00 AM 52.3602 10.4607 348° North  Level Estimated
Thu 03:12:00 AM 52.4577 10.4254 348° North  Level Estimated
Thu 03:13:00 AM 52.5552 10.3900 348° North  Level Estimated
Thu 03:14:00 AM 52.6527 10.3544 348° North  Level Estimated
Thu 03:15:00 AM 52.7502 10.3187 347° North  Level Estimated
Thu 03:16:00 AM 52.8477 10.2827 347° North  Level Estimated
Thu 03:17:00 AM 52.9451 10.2467 347° North  Level Estimated
Thu 03:18:00 AM 53.0426 10.2104 347° North  Level Estimated
Thu 03:19:00 AM 53.1400 10.1740 347° North  Level Estimated
Thu 03:20:00 AM 53.2375 10.1375 347° North  Level Estimated
Thu 03:21:00 AM 53.3349 10.1007 347° North  Level Estimated
Thu 03:22:00 AM 53.4323 10.0638 347° North  Level Estimated
Thu 03:23:00 AM 53.5297 10.0267 347° North  Level Estimated
Thu 03:24:00 AM 53.6271 9.9895 347° North  Level Estimated
Thu 03:25:00 AM 53.6304 9.9882 347° North  Level Estimated
Thu 03:26:00 AM 53.6304 9.9882 230° Southwest  Level Estimated
Thu 03:27:00 AM 53.6304 9.9882 230° Southwest  Level Estimated
Thu 03:28:00 AM 53.6304 9.9882 230° Southwest  Level Estimated
Thu 03:29:00 AM 53.6304 9.9882 230° Southwest  Level Estimated
Thu 03:30:00 AM 53.6304 9.9882 230° Southwest  Level Estimated
Thu 03:31:00 AM 53.6304 9.9882 230° Southwest  Level Estimated
Thu 03:32:00 AM 53.6304 9.9882 230° Southwest  Level Estimated
Thu 03:33:00 AM 53.6304 9.9882 230° Southwest  Level Estimated
Thu 03:34:00 AM 53.6304 9.9882 230° Southwest  Level Estimated
Thu 03:35:00 AM 53.6304 9.9882 230° Southwest  Level Estimated
Thu 03:36:00 AM 53.6304 9.9882 230° Southwest  Level Estimated
Thu 03:37:00 AM 53.6304 9.9882 230° Southwest  Level Estimated
Thu 03:38:00 AM 53.6304 9.9882 230° Southwest  Level Estimated
Thu 03:39:00 AM 53.6304 9.9882 230° Southwest  Level Estimated
Thu 03:40:00 AM 53.6304 9.9882 230° Southwest  Level Estimated

Login

Don't have an account? Register now (free) for customized features, flight alerts, and more!